Terminal Aerodrome Forecast
Issued by NWS

Home | Current Version | Previous Version | Text Only | Print | Product List | Glossary On
Versions: 1 2 3 4 5 6 7 8 9 10 11 12 13 14 15 16 17
000
FTUS43 KICT 261139
TAFSLN
TAF
KSLN 261139Z 2612/2712 VRB05KT P6SM VCTS SCT040CB BKN100
      TEMPO 2612/2613 5SM TSRA SCT040CB BKN080
     FM261500 19010KT P6SM SCT250
     FM261700 18012G18KT P6SM SKC
     FM270100 17010KT P6SM SCT250=

USA.gov is the U.S. government's official web portal to all federal, state and local government web resources and services.